createdAt,value
2022-11-26T00:03:32.904Z,61.92
2022-11-26T00:08:36.519Z,61.93
2022-11-26T00:13:40.688Z,61.82
2022-11-26T00:18:43.612Z,61.89
2022-11-26T00:23:46.723Z,61.98
2022-11-26T00:28:53.679Z,61.97
2022-11-26T00:33:56.491Z,62.05
2022-11-26T00:39:03.200Z,62.15
2022-11-26T00:44:18.516Z,62.03
2022-11-26T00:49:21.820Z,62.06
2022-11-26T00:54:24.928Z,62.03
2022-11-26T00:59:29.010Z,62.03
2022-11-26T01:04:31.827Z,61.92
2022-11-26T01:09:34.616Z,62.25
2022-11-26T01:14:39.148Z,61.95
2022-11-26T01:19:42.103Z,61.95
2022-11-26T01:24:44.838Z,62.21
2022-11-26T01:29:49.000Z,62.36
2022-11-26T01:34:52.048Z,62.41
2022-11-26T01:39:54.781Z,62.74
2022-11-26T01:44:58.973Z,62.71
2022-11-26T01:50:39.187Z,62.77
2022-11-26T01:55:46.495Z,62.84
2022-11-26T02:00:52.188Z,63.14
2022-11-26T02:06:02.598Z,63.20
2022-11-26T02:11:16.778Z,63.22
2022-11-26T02:16:31.578Z,63.23
2022-11-26T02:21:37.166Z,63.45
2022-11-26T02:27:03.601Z,63.29
2022-11-26T02:32:12.191Z,63.72
2022-11-26T02:37:21.276Z,63.67
2022-11-26T02:42:27.485Z,63.92
2022-11-26T02:47:34.773Z,63.95
2022-11-26T02:52:41.448Z,64.13
2022-11-26T02:57:48.405Z,64.17
2022-11-26T03:03:01.565Z,64.08
2022-11-26T03:08:06.753Z,64.16
2022-11-26T03:13:09.601Z,64.36
2022-11-26T03:18:13.819Z,64.21
2022-11-26T03:23:16.603Z,64.44
2022-11-26T03:28:19.400Z,64.56
2022-11-26T03:33:23.671Z,64.71
2022-11-26T03:38:26.700Z,64.59
2022-11-26T03:43:30.173Z,64.78
2022-11-26T03:48:34.373Z,64.90
2022-11-26T03:53:37.185Z,65.13
2022-11-26T03:58:39.991Z,65.34
2022-11-26T04:03:44.119Z,65.35
2022-11-26T04:08:46.944Z,65.46
2022-11-26T04:13:49.757Z,65.57
2022-11-26T04:18:54.058Z,65.75
2022-11-26T04:23:56.934Z,65.82
2022-11-26T04:28:59.776Z,66.11
2022-11-26T04:34:03.934Z,66.42
2022-11-26T04:39:06.961Z,66.63
2022-11-26T04:44:09.820Z,66.73
2022-11-26T04:49:14.000Z,67.03
2022-11-26T04:54:16.801Z,67.40
2022-11-26T04:59:19.526Z,67.41
2022-11-26T05:04:23.821Z,67.77
2022-11-26T05:09:26.601Z,68.04
2022-11-26T05:14:29.522Z,68.44
2022-11-26T05:19:34.156Z,68.54
2022-11-26T05:24:38.081Z,68.81
2022-11-26T05:29:41.309Z,69.24
2022-11-26T05:34:45.614Z,69.68
2022-11-26T05:39:48.409Z,69.92
2022-11-26T05:44:51.295Z,70.13
2022-11-26T05:49:55.607Z,70.15
2022-11-26T05:54:58.448Z,70.22
2022-11-26T06:00:01.275Z,70.41
2022-11-26T06:05:16.243Z,70.35
2022-11-26T06:10:19.821Z,70.69
2022-11-26T06:15:22.578Z,70.90
2022-11-26T06:20:26.943Z,71.14
2022-11-26T06:25:29.734Z,71.30
2022-11-26T06:30:32.547Z,71.33
2022-11-26T06:35:36.885Z,71.47
2022-11-26T06:40:39.809Z,71.75
2022-11-26T06:45:42.609Z,72.00
2022-11-26T06:50:46.726Z,72.10
2022-11-26T06:55:49.496Z,72.21
2022-11-26T07:00:52.323Z,72.32
2022-11-26T07:05:56.549Z,72.46
2022-11-26T07:11:03.324Z,72.48
2022-11-26T07:16:07.300Z,72.54
2022-11-26T07:21:14.160Z,72.52
2022-11-26T07:26:19.333Z,72.96
2022-11-26T07:31:23.880Z,73.01
2022-11-26T07:36:30.463Z,73.03
2022-11-26T07:41:33.407Z,73.27
2022-11-26T07:46:39.282Z,73.34
2022-11-26T07:51:43.823Z,73.67
2022-11-26T07:56:46.599Z,73.89
2022-11-26T08:01:49.466Z,73.11
2022-11-26T08:06:53.585Z,73.44
2022-11-26T08:11:56.387Z,72.36
2022-11-26T08:16:59.176Z,71.30
2022-11-26T08:22:03.452Z,70.82
2022-11-26T08:27:06.387Z,70.52
2022-11-26T08:32:09.180Z,70.89
2022-11-26T08:37:13.462Z,70.86
2022-11-26T08:42:16.336Z,60.42
2022-11-26T08:47:19.123Z,61.90
2022-11-26T08:52:23.528Z,66.66
2022-11-26T08:57:29.483Z,65.94
2022-11-26T09:02:34.145Z,65.79
2022-11-26T09:07:38.369Z,66.16
2022-11-26T09:12:41.309Z,66.56
2022-11-26T09:17:44.076Z,66.84
2022-11-26T09:22:48.595Z,67.22
2022-11-26T09:27:51.395Z,67.13
2022-11-26T09:32:54.213Z,67.38
2022-11-26T09:37:58.562Z,67.89
2022-11-26T09:43:08.080Z,68.17
2022-11-26T09:48:17.230Z,68.25
2022-11-26T09:53:25.671Z,68.45
2022-11-26T09:58:35.195Z,68.55
2022-11-26T10:03:39.042Z,68.61
2022-11-26T10:09:09.378Z,68.51
2022-11-26T10:14:28.560Z,68.92
2022-11-26T10:19:42.530Z,68.88
2022-11-26T10:24:49.152Z,69.06
2022-11-26T10:29:55.388Z,69.09
2022-11-26T10:34:59.537Z,69.28
2022-11-26T10:40:20.426Z,69.27
2022-11-26T10:45:25.595Z,69.42
2022-11-26T10:55:54.882Z,69.65
2022-11-26T11:01:02.364Z,69.79
2022-11-26T11:06:14.246Z,69.68
2022-11-26T11:11:22.797Z,69.87
2022-11-26T11:16:28.445Z,69.99
2022-11-26T11:21:35.433Z,69.81
2022-11-26T11:26:44.562Z,69.87
2022-11-26T11:31:47.652Z,69.87
2022-11-26T11:37:01.272Z,69.66
2022-11-26T11:42:09.169Z,72.16
2022-11-26T11:47:23.715Z,72.95
2022-11-26T11:52:36.501Z,72.45
2022-11-26T11:57:59.207Z,71.97
2022-11-26T12:03:31.485Z,71.37
2022-11-26T12:08:45.345Z,71.36
2022-11-26T12:13:53.732Z,70.69
2022-11-26T12:19:02.110Z,70.47
2022-11-26T12:24:12.718Z,68.23
2022-11-26T12:29:22.389Z,67.81
2022-11-26T12:34:33.311Z,64.99
2022-11-26T12:39:45.321Z,63.91
2022-11-26T12:44:54.464Z,63.38
2022-11-26T12:50:08.132Z,63.43
2022-11-26T12:55:18.499Z,64.24
2022-11-26T13:00:30.116Z,64.95
2022-11-26T13:05:51.562Z,65.12
2022-11-26T13:11:17.902Z,64.71
2022-11-26T13:16:27.561Z,64.84
2022-11-26T13:21:44.169Z,64.97
2022-11-26T13:27:02.559Z,65.03
2022-11-26T13:32:26.032Z,65.25
2022-11-26T13:37:52.317Z,65.00
2022-11-26T13:43:30.233Z,64.88
2022-11-26T13:48:43.220Z,65.35
2022-11-26T13:53:51.271Z,65.59
2022-11-26T13:58:59.325Z,66.03
2022-11-26T14:04:05.456Z,65.89
2022-11-26T14:09:46.719Z,65.91
2022-11-26T14:14:50.557Z,65.97
2022-11-26T14:20:05.643Z,66.02
2022-11-26T14:25:12.040Z,67.28
2022-11-26T14:30:22.493Z,67.76
2022-11-26T14:35:33.875Z,67.87
2022-11-26T14:40:39.532Z,67.86
2022-11-26T14:45:43.148Z,68.03
2022-11-26T14:50:47.428Z,68.02
2022-11-26T14:55:51.943Z,68.03
2022-11-26T15:01:08.019Z,68.07
2022-11-26T15:06:26.613Z,68.06
2022-11-26T15:11:29.672Z,68.14
2022-11-26T15:16:35.025Z,68.12
2022-11-26T15:21:42.163Z,68.49
2022-11-26T15:26:47.953Z,68.49
2022-11-26T15:31:50.787Z,68.74
2022-11-26T15:36:55.241Z,69.18
2022-11-26T15:42:04.006Z,69.12
2022-11-26T15:47:06.855Z,69.24
2022-11-26T15:52:14.543Z,69.07
2022-11-26T15:57:25.141Z,69.04
2022-11-26T16:02:31.201Z,68.81
2022-11-26T16:07:35.696Z,68.89
2022-11-26T16:12:44.046Z,68.79
2022-11-26T16:17:48.609Z,68.68
2022-11-26T16:22:56.886Z,68.69
2022-11-26T16:28:05.260Z,68.91
2022-11-26T16:33:08.374Z,68.96
2022-11-26T16:38:20.140Z,69.02
2022-11-26T16:43:23.804Z,68.94
2022-11-26T16:48:28.642Z,69.05
2022-11-26T16:53:33.449Z,68.86
2022-11-26T16:58:38.779Z,69.19
2022-11-26T17:03:42.746Z,69.29
2022-11-26T17:08:49.797Z,69.32
2022-11-26T17:13:53.111Z,69.41
2022-11-26T17:18:55.947Z,69.53
2022-11-26T17:24:00.112Z,69.03
2022-11-26T17:29:03.079Z,69.01
2022-11-26T17:34:05.848Z,68.73
2022-11-26T17:39:12.297Z,68.40
2022-11-26T17:44:15.150Z,68.31
2022-11-26T17:49:18.114Z,67.90
2022-11-26T17:54:22.231Z,67.79
2022-11-26T17:59:25.099Z,67.49
2022-11-26T18:04:27.923Z,67.25
2022-11-26T18:09:32.915Z,66.94
2022-11-26T18:14:36.088Z,66.78
2022-11-26T18:19:43.599Z,66.56
2022-11-26T18:24:56.350Z,66.43
2022-11-26T18:30:00.314Z,66.19
2022-11-26T18:35:03.436Z,66.04
2022-11-26T18:40:11.138Z,65.87
2022-11-26T18:45:16.513Z,65.78
2022-11-26T18:50:19.718Z,65.24
2022-11-26T18:55:23.908Z,65.24
2022-11-26T19:00:26.835Z,65.06
2022-11-26T19:05:29.590Z,64.82
2022-11-26T19:10:34.136Z,64.72
2022-11-26T19:15:41.421Z,64.38
2022-11-26T19:20:52.879Z,64.46
2022-11-26T19:25:57.489Z,64.37
2022-11-26T19:31:01.939Z,64.19
2022-11-26T19:36:06.449Z,64.11
2022-11-26T19:41:11.231Z,64.07
2022-11-26T19:46:17.556Z,63.98
2022-11-26T19:51:22.557Z,63.77
2022-11-26T19:56:28.637Z,63.80
2022-11-26T20:01:34.437Z,63.92
2022-11-26T20:06:38.043Z,63.63
2022-11-26T20:11:42.454Z,63.52
2022-11-26T20:16:46.147Z,63.21
2022-11-26T20:21:50.867Z,63.25
2022-11-26T20:26:55.174Z,63.39
2022-11-26T20:31:58.002Z,63.15
2022-11-26T20:37:01.829Z,63.05
2022-11-26T20:42:06.150Z,63.02
2022-11-26T20:47:09.056Z,62.94
2022-11-26T20:52:11.909Z,63.02
2022-11-26T20:57:18.071Z,62.79
2022-11-26T21:02:20.855Z,62.95
2022-11-26T21:07:23.952Z,62.86
2022-11-26T21:12:28.950Z,62.77
2022-11-26T21:17:31.708Z,62.77
2022-11-26T21:22:34.628Z,62.62
2022-11-26T21:27:38.803Z,62.57
2022-11-26T21:32:41.599Z,62.58
2022-11-26T21:37:44.460Z,62.64
2022-11-26T21:42:48.778Z,62.57
2022-11-26T21:47:52.033Z,62.38
2022-11-26T21:52:54.821Z,62.35
2022-11-26T21:57:59.195Z,62.15
2022-11-26T22:03:04.938Z,62.16
2022-11-26T22:08:09.995Z,62.31
2022-11-26T22:13:14.429Z,62.31
2022-11-26T22:18:17.259Z,62.37
2022-11-26T22:23:22.721Z,62.27
2022-11-26T22:28:30.170Z,62.44
2022-11-26T22:33:33.206Z,62.34
2022-11-26T22:38:36.932Z,62.36
2022-11-26T22:43:42.042Z,62.44
2022-11-26T22:48:49.069Z,62.43
2022-11-26T22:53:52.245Z,62.28
2022-11-26T22:58:56.853Z,62.34
2022-11-26T23:04:01.196Z,62.28
2022-11-26T23:09:05.933Z,62.55
2022-11-26T23:14:11.974Z,62.53
2022-11-26T23:19:16.332Z,62.52
2022-11-26T23:24:19.131Z,62.58
2022-11-26T23:29:23.516Z,62.56
2022-11-26T23:34:26.274Z,62.57
2022-11-26T23:39:29.165Z,62.56
2022-11-26T23:44:33.504Z,62.59
2022-11-26T23:49:36.403Z,62.64
2022-11-26T23:54:39.160Z,62.69
2022-11-26T23:59:43.349Z,62.69
